sensor_id;sensor_type;location;lat;lon;timestamp;P1;durP1;ratioP1;P2;durP2;ratioP2
48999;SDS011;34808;48.144;17.158;2022-11-15T00:00:06;31.83;;;24.33;;
48999;SDS011;34808;48.144;17.158;2022-11-15T00:02:32;31.67;;;23.92;;
48999;SDS011;34808;48.144;17.158;2022-11-15T00:04:57;33.53;;;23.85;;
48999;SDS011;34808;48.144;17.158;2022-11-15T00:07:22;33.92;;;25.15;;
48999;SDS011;34808;48.144;17.158;2022-11-15T00:09:48;35.53;;;26.10;;
48999;SDS011;34808;48.144;17.158;2022-11-15T00:12:13;41.03;;;27.20;;
48999;SDS011;34808;48.144;17.158;2022-11-15T00:14:38;36.13;;;26.27;;
48999;SDS011;34808;48.144;17.158;2022-11-15T00:17:04;37.00;;;25.80;;
48999;SDS011;34808;48.144;17.158;2022-11-15T00:19:29;38.28;;;26.48;;
48999;SDS011;34808;48.144;17.158;2022-11-15T00:21:54;34.28;;;24.42;;
48999;SDS011;34808;48.144;17.158;2022-11-15T00:24:20;36.03;;;26.48;;
48999;SDS011;34808;48.144;17.158;2022-11-15T00:26:45;35.47;;;25.63;;
48999;SDS011;34808;48.144;17.158;2022-11-15T00:29:10;34.28;;;24.92;;
48999;SDS011;34808;48.144;17.158;2022-11-15T00:31:36;33.30;;;24.23;;
48999;SDS011;34808;48.144;17.158;2022-11-15T00:34:01;39.35;;;26.00;;
48999;SDS011;34808;48.144;17.158;2022-11-15T00:36:26;35.20;;;25.38;;
48999;SDS011;34808;48.144;17.158;2022-11-15T00:38:52;35.65;;;25.65;;
48999;SDS011;34808;48.144;17.158;2022-11-15T00:41:17;34.42;;;22.95;;
48999;SDS011;34808;48.144;17.158;2022-11-15T00:43:42;40.97;;;24.55;;
48999;SDS011;34808;48.144;17.158;2022-11-15T00:46:08;56.20;;;27.30;;
48999;SDS011;34808;48.144;17.158;2022-11-15T00:48:34;33.63;;;24.25;;
48999;SDS011;34808;48.144;17.158;2022-11-15T00:51:00;31.83;;;24.70;;
48999;SDS011;34808;48.144;17.158;2022-11-15T00:53:26;32.08;;;23.58;;
48999;SDS011;34808;48.144;17.158;2022-11-15T00:55:51;38.67;;;23.13;;
48999;SDS011;34808;48.144;17.158;2022-11-15T00:58:16;39.20;;;23.05;;
48999;SDS011;34808;48.144;17.158;2022-11-15T01:00:42;31.70;;;23.83;;
48999;SDS011;34808;48.144;17.158;2022-11-15T01:03:07;28.17;;;21.42;;
48999;SDS011;34808;48.144;17.158;2022-11-15T01:05:32;30.98;;;23.85;;
48999;SDS011;34808;48.144;17.158;2022-11-15T01:07:58;30.58;;;23.27;;
48999;SDS011;34808;48.144;17.158;2022-11-15T01:10:23;28.40;;;22.35;;
48999;SDS011;34808;48.144;17.158;2022-11-15T01:12:50;32.53;;;23.77;;
48999;SDS011;34808;48.144;17.158;2022-11-15T01:15:16;30.58;;;23.45;;
48999;SDS011;34808;48.144;17.158;2022-11-15T01:17:44;27.15;;;21.08;;
48999;SDS011;34808;48.144;17.158;2022-11-15T01:20:10;29.92;;;21.63;;
48999;SDS011;34808;48.144;17.158;2022-11-15T01:22:35;33.67;;;24.45;;
48999;SDS011;34808;48.144;17.158;2022-11-15T01:25:01;28.73;;;22.90;;
48999;SDS011;34808;48.144;17.158;2022-11-15T01:27:26;29.00;;;22.55;;
48999;SDS011;34808;48.144;17.158;2022-11-15T01:29:51;33.38;;;23.95;;
48999;SDS011;34808;48.144;17.158;2022-11-15T01:32:17;38.42;;;24.75;;
48999;SDS011;34808;48.144;17.158;2022-11-15T01:34:42;27.63;;;22.33;;
48999;SDS011;34808;48.144;17.158;2022-11-15T01:37:08;31.92;;;24.23;;
48999;SDS011;34808;48.144;17.158;2022-11-15T01:39:51;31.05;;;24.30;;
48999;SDS011;34808;48.144;17.158;2022-11-15T01:42:17;37.47;;;25.60;;
48999;SDS011;34808;48.144;17.158;2022-11-15T01:44:44;31.90;;;24.30;;
48999;SDS011;34808;48.144;17.158;2022-11-15T01:47:19;32.88;;;24.00;;
48999;SDS011;34808;48.144;17.158;2022-11-15T01:49:56;33.38;;;24.48;;
48999;SDS011;34808;48.144;17.158;2022-11-15T01:52:26;32.72;;;25.17;;
48999;SDS011;34808;48.144;17.158;2022-11-15T01:55:03;30.13;;;23.40;;
48999;SDS011;34808;48.144;17.158;2022-11-15T01:57:33;32.35;;;25.65;;
48999;SDS011;34808;48.144;17.158;2022-11-15T01:59:59;35.20;;;24.20;;
48999;SDS011;34808;48.144;17.158;2022-11-15T02:02:26;33.05;;;25.10;;
48999;SDS011;34808;48.144;17.158;2022-11-15T02:04:51;35.28;;;25.42;;
48999;SDS011;34808;48.144;17.158;2022-11-15T02:07:17;34.72;;;24.80;;
48999;SDS011;34808;48.144;17.158;2022-11-15T02:09:45;31.42;;;23.58;;
48999;SDS011;34808;48.144;17.158;2022-11-15T02:12:12;35.60;;;25.58;;
48999;SDS011;34808;48.144;17.158;2022-11-15T02:14:42;34.03;;;25.30;;
48999;SDS011;34808;48.144;17.158;2022-11-15T02:27:49;37.87;;;26.83;;
48999;SDS011;34808;48.144;17.158;2022-11-15T02:30:27;37.60;;;27.05;;
48999;SDS011;34808;48.144;17.158;2022-11-15T02:33:10;35.08;;;25.27;;
48999;SDS011;34808;48.144;17.158;2022-11-15T02:41:02;40.20;;;29.42;;
48999;SDS011;34808;48.144;17.158;2022-11-15T02:43:36;41.47;;;29.02;;
48999;SDS011;34808;48.144;17.158;2022-11-15T02:49:23;38.25;;;27.80;;
48999;SDS011;34808;48.144;17.158;2022-11-15T02:51:52;39.80;;;29.50;;
48999;SDS011;34808;48.144;17.158;2022-11-15T02:54:21;39.33;;;28.02;;
48999;SDS011;34808;48.144;17.158;2022-11-15T02:56:49;41.85;;;29.52;;
48999;SDS011;34808;48.144;17.158;2022-11-15T03:08:15;43.53;;;31.05;;
48999;SDS011;34808;48.144;17.158;2022-11-15T03:10:57;45.70;;;31.90;;
48999;SDS011;34808;48.144;17.158;2022-11-15T03:19:33;45.78;;;31.73;;
48999;SDS011;34808;48.144;17.158;2022-11-15T03:22:06;49.47;;;33.30;;
48999;SDS011;34808;48.144;17.158;2022-11-15T03:24:36;45.75;;;32.20;;
48999;SDS011;34808;48.144;17.158;2022-11-15T03:27:03;42.92;;;29.85;;
48999;SDS011;34808;48.144;17.158;2022-11-15T03:29:34;51.20;;;32.45;;
48999;SDS011;34808;48.144;17.158;2022-11-15T03:32:06;50.80;;;33.00;;
48999;SDS011;34808;48.144;17.158;2022-11-15T03:34:39;49.75;;;33.53;;
48999;SDS011;34808;48.144;17.158;2022-11-15T03:37:09;49.90;;;31.55;;
48999;SDS011;34808;48.144;17.158;2022-11-15T03:39:42;52.35;;;33.92;;
48999;SDS011;34808;48.144;17.158;2022-11-15T03:45:22;51.58;;;32.88;;
48999;SDS011;34808;48.144;17.158;2022-11-15T03:48:10;50.90;;;34.35;;
48999;SDS011;34808;48.144;17.158;2022-11-15T03:50:40;51.35;;;33.97;;
48999;SDS011;34808;48.144;17.158;2022-11-15T03:53:07;52.97;;;34.28;;
48999;SDS011;34808;48.144;17.158;2022-11-15T03:55:33;51.33;;;36.20;;
48999;SDS011;34808;48.144;17.158;2022-11-15T03:57:59;58.03;;;37.50;;
48999;SDS011;34808;48.144;17.158;2022-11-15T04:00:26;52.50;;;35.90;;
48999;SDS011;34808;48.144;17.158;2022-11-15T04:02:52;56.10;;;37.78;;
48999;SDS011;34808;48.144;17.158;2022-11-15T04:05:17;52.45;;;35.75;;
48999;SDS011;34808;48.144;17.158;2022-11-15T04:07:43;57.00;;;35.45;;
48999;SDS011;34808;48.144;17.158;2022-11-15T04:10:10;56.78;;;36.33;;
48999;SDS011;34808;48.144;17.158;2022-11-15T04:12:37;49.47;;;35.35;;
48999;SDS011;34808;48.144;17.158;2022-11-15T04:15:09;59.47;;;38.10;;
48999;SDS011;34808;48.144;17.158;2022-11-15T04:17:39;55.10;;;36.50;;
48999;SDS011;34808;48.144;17.158;2022-11-15T04:20:06;60.35;;;39.33;;
48999;SDS011;34808;48.144;17.158;2022-11-15T04:22:53;59.05;;;39.50;;
48999;SDS011;34808;48.144;17.158;2022-11-15T04:25:38;61.08;;;40.00;;
48999;SDS011;34808;48.144;17.158;2022-11-15T04:28:03;61.60;;;37.28;;
48999;SDS011;34808;48.144;17.158;2022-11-15T04:30:29;60.95;;;38.83;;
48999;SDS011;34808;48.144;17.158;2022-11-15T04:32:54;53.08;;;35.20;;
48999;SDS011;34808;48.144;17.158;2022-11-15T04:35:20;58.10;;;37.45;;
48999;SDS011;34808;48.144;17.158;2022-11-15T04:37:45;55.65;;;35.97;;
48999;SDS011;34808;48.144;17.158;2022-11-15T04:40:10;53.05;;;36.42;;
48999;SDS011;34808;48.144;17.158;2022-11-15T04:42:36;59.00;;;39.45;;
48999;SDS011;34808;48.144;17.158;2022-11-15T04:45:01;59.20;;;39.33;;
48999;SDS011;34808;48.144;17.158;2022-11-15T04:47:27;59.88;;;37.63;;
48999;SDS011;34808;48.144;17.158;2022-11-15T04:49:53;58.03;;;37.45;;
48999;SDS011;34808;48.144;17.158;2022-11-15T04:52:18;61.92;;;40.50;;
48999;SDS011;34808;48.144;17.158;2022-11-15T04:54:43;53.25;;;37.20;;
48999;SDS011;34808;48.144;17.158;2022-11-15T04:57:09;56.60;;;39.50;;
48999;SDS011;34808;48.144;17.158;2022-11-15T04:59:35;54.22;;;37.45;;
48999;SDS011;34808;48.144;17.158;2022-11-15T05:02:00;55.67;;;36.10;;
48999;SDS011;34808;48.144;17.158;2022-11-15T05:04:25;50.85;;;36.15;;
48999;SDS011;34808;48.144;17.158;2022-11-15T05:06:51;52.88;;;35.35;;
48999;SDS011;34808;48.144;17.158;2022-11-15T05:09:17;53.47;;;37.28;;
48999;SDS011;34808;48.144;17.158;2022-11-15T05:11:43;57.20;;;37.45;;
48999;SDS011;34808;48.144;17.158;2022-11-15T05:14:09;52.00;;;36.60;;
48999;SDS011;34808;48.144;17.158;2022-11-15T05:16:34;52.70;;;36.97;;
48999;SDS011;34808;48.144;17.158;2022-11-15T05:19:00;54.83;;;38.95;;
48999;SDS011;34808;48.144;17.158;2022-11-15T05:21:26;55.05;;;36.67;;
48999;SDS011;34808;48.144;17.158;2022-11-15T05:23:51;55.78;;;37.70;;
48999;SDS011;34808;48.144;17.158;2022-11-15T05:26:17;55.22;;;35.92;;
48999;SDS011;34808;48.144;17.158;2022-11-15T05:28:43;52.92;;;38.83;;
48999;SDS011;34808;48.144;17.158;2022-11-15T05:31:10;54.10;;;37.70;;
48999;SDS011;34808;48.144;17.158;2022-11-15T05:33:40;53.28;;;37.72;;
48999;SDS011;34808;48.144;17.158;2022-11-15T05:36:09;51.70;;;35.15;;
48999;SDS011;34808;48.144;17.158;2022-11-15T05:38:54;49.97;;;37.17;;
48999;SDS011;34808;48.144;17.158;2022-11-15T05:41:20;48.95;;;34.60;;
48999;SDS011;34808;48.144;17.158;2022-11-15T05:43:50;46.65;;;35.88;;
48999;SDS011;34808;48.144;17.158;2022-11-15T05:46:16;47.25;;;33.30;;
48999;SDS011;34808;48.144;17.158;2022-11-15T05:48:43;49.55;;;34.05;;
48999;SDS011;34808;48.144;17.158;2022-11-15T05:51:12;48.63;;;33.10;;
48999;SDS011;34808;48.144;17.158;2022-11-15T05:53:39;50.28;;;36.30;;
48999;SDS011;34808;48.144;17.158;2022-11-15T05:56:05;46.70;;;32.95;;
48999;SDS011;34808;48.144;17.158;2022-11-15T05:58:34;44.88;;;31.83;;
48999;SDS011;34808;48.144;17.158;2022-11-15T06:01:01;47.60;;;34.17;;
48999;SDS011;34808;48.144;17.158;2022-11-15T06:03:26;44.72;;;31.25;;
48999;SDS011;34808;48.144;17.158;2022-11-15T06:05:51;43.97;;;31.58;;
48999;SDS011;34808;48.144;17.158;2022-11-15T06:08:17;46.30;;;32.17;;
48999;SDS011;34808;48.144;17.158;2022-11-15T06:10:42;48.33;;;33.53;;
48999;SDS011;34808;48.144;17.158;2022-11-15T06:13:07;44.88;;;32.30;;
48999;SDS011;34808;48.144;17.158;2022-11-15T06:15:33;45.20;;;32.17;;
48999;SDS011;34808;48.144;17.158;2022-11-15T06:17:59;44.45;;;32.30;;
48999;SDS011;34808;48.144;17.158;2022-11-15T06:20:25;45.92;;;31.05;;
48999;SDS011;34808;48.144;17.158;2022-11-15T06:22:58;44.10;;;32.78;;
48999;SDS011;34808;48.144;17.158;2022-11-15T06:25:25;43.90;;;32.75;;
48999;SDS011;34808;48.144;17.158;2022-11-15T06:27:52;44.50;;;32.58;;
48999;SDS011;34808;48.144;17.158;2022-11-15T06:30:18;41.28;;;30.45;;
48999;SDS011;34808;48.144;17.158;2022-11-15T06:32:44;47.00;;;31.08;;
48999;SDS011;34808;48.144;17.158;2022-11-15T06:35:09;40.58;;;31.02;;
48999;SDS011;34808;48.144;17.158;2022-11-15T06:37:34;43.28;;;31.67;;
48999;SDS011;34808;48.144;17.158;2022-11-15T06:40:00;46.47;;;32.47;;
48999;SDS011;34808;48.144;17.158;2022-11-15T06:42:25;40.20;;;30.33;;
48999;SDS011;34808;48.144;17.158;2022-11-15T06:44:50;44.47;;;32.22;;
48999;SDS011;34808;48.144;17.158;2022-11-15T06:47:16;42.53;;;30.67;;
48999;SDS011;34808;48.144;17.158;2022-11-15T06:49:41;43.40;;;31.13;;
48999;SDS011;34808;48.144;17.158;2022-11-15T06:52:06;38.88;;;28.42;;
48999;SDS011;34808;48.144;17.158;2022-11-15T06:54:32;39.83;;;26.40;;
48999;SDS011;34808;48.144;17.158;2022-11-15T06:56:57;42.20;;;27.77;;
48999;SDS011;34808;48.144;17.158;2022-11-15T06:59:22;35.78;;;26.77;;
48999;SDS011;34808;48.144;17.158;2022-11-15T07:01:48;36.78;;;26.65;;
48999;SDS011;34808;48.144;17.158;2022-11-15T07:04:14;35.42;;;27.27;;
48999;SDS011;34808;48.144;17.158;2022-11-15T07:06:39;32.47;;;24.95;;
48999;SDS011;34808;48.144;17.158;2022-11-15T07:09:04;44.30;;;29.00;;
48999;SDS011;34808;48.144;17.158;2022-11-15T07:11:30;36.13;;;26.05;;
48999;SDS011;34808;48.144;17.158;2022-11-15T07:13:55;37.75;;;27.65;;
48999;SDS011;34808;48.144;17.158;2022-11-15T07:16:20;38.28;;;24.88;;
48999;SDS011;34808;48.144;17.158;2022-11-15T07:18:46;33.60;;;23.95;;
48999;SDS011;34808;48.144;17.158;2022-11-15T07:21:11;33.20;;;25.13;;
48999;SDS011;34808;48.144;17.158;2022-11-15T07:23:37;33.40;;;24.77;;
48999;SDS011;34808;48.144;17.158;2022-11-15T07:26:03;39.65;;;26.02;;
48999;SDS011;34808;48.144;17.158;2022-11-15T07:28:29;35.92;;;24.48;;
48999;SDS011;34808;48.144;17.158;2022-11-15T07:30:54;34.72;;;25.33;;
48999;SDS011;34808;48.144;17.158;2022-11-15T07:33:20;34.33;;;24.98;;
48999;SDS011;34808;48.144;17.158;2022-11-15T07:35:45;33.65;;;24.50;;
48999;SDS011;34808;48.144;17.158;2022-11-15T07:38:14;38.90;;;25.45;;
48999;SDS011;34808;48.144;17.158;2022-11-15T07:40:44;38.42;;;26.35;;
48999;SDS011;34808;48.144;17.158;2022-11-15T07:43:10;29.25;;;23.55;;
48999;SDS011;34808;48.144;17.158;2022-11-15T07:45:41;35.90;;;25.63;;
48999;SDS011;34808;48.144;17.158;2022-11-15T07:48:07;32.97;;;24.17;;
48999;SDS011;34808;48.144;17.158;2022-11-15T07:50:33;32.05;;;24.00;;
48999;SDS011;34808;48.144;17.158;2022-11-15T07:52:59;34.55;;;24.90;;
48999;SDS011;34808;48.144;17.158;2022-11-15T07:55:25;34.60;;;24.55;;
48999;SDS011;34808;48.144;17.158;2022-11-15T07:58:15;34.05;;;25.08;;
48999;SDS011;34808;48.144;17.158;2022-11-15T08:00:40;33.25;;;23.17;;
48999;SDS011;34808;48.144;17.158;2022-11-15T08:03:12;33.33;;;23.85;;
48999;SDS011;34808;48.144;17.158;2022-11-15T08:05:42;32.20;;;22.85;;
48999;SDS011;34808;48.144;17.158;2022-11-15T08:08:11;32.45;;;24.27;;
48999;SDS011;34808;48.144;17.158;2022-11-15T08:10:39;32.50;;;23.83;;
48999;SDS011;34808;48.144;17.158;2022-11-15T08:13:07;33.83;;;24.83;;
48999;SDS011;34808;48.144;17.158;2022-11-15T08:15:34;31.90;;;23.25;;
48999;SDS011;34808;48.144;17.158;2022-11-15T08:18:03;30.13;;;23.10;;
48999;SDS011;34808;48.144;17.158;2022-11-15T08:20:33;31.98;;;23.77;;
48999;SDS011;34808;48.144;17.158;2022-11-15T08:22:59;30.38;;;22.25;;
48999;SDS011;34808;48.144;17.158;2022-11-15T08:25:28;32.75;;;22.60;;
48999;SDS011;34808;48.144;17.158;2022-11-15T08:27:55;31.02;;;23.98;;
48999;SDS011;34808;48.144;17.158;2022-11-15T08:30:22;41.67;;;26.10;;
48999;SDS011;34808;48.144;17.158;2022-11-15T08:32:49;33.75;;;25.15;;
48999;SDS011;34808;48.144;17.158;2022-11-15T08:35:15;32.50;;;24.15;;
48999;SDS011;34808;48.144;17.158;2022-11-15T08:37:43;31.30;;;22.98;;
48999;SDS011;34808;48.144;17.158;2022-11-15T08:40:12;31.50;;;23.48;;
48999;SDS011;34808;48.144;17.158;2022-11-15T08:42:38;35.53;;;25.40;;
48999;SDS011;34808;48.144;17.158;2022-11-15T08:45:05;30.13;;;23.75;;
48999;SDS011;34808;48.144;17.158;2022-11-15T08:47:31;32.08;;;24.27;;
48999;SDS011;34808;48.144;17.158;2022-11-15T08:49:59;37.10;;;27.10;;
48999;SDS011;34808;48.144;17.158;2022-11-15T08:52:24;33.00;;;23.80;;
48999;SDS011;34808;48.144;17.158;2022-11-15T08:54:52;31.92;;;24.73;;
48999;SDS011;34808;48.144;17.158;2022-11-15T08:57:17;31.65;;;23.90;;
48999;SDS011;34808;48.144;17.158;2022-11-15T08:59:43;34.47;;;24.17;;
48999;SDS011;34808;48.144;17.158;2022-11-15T09:02:14;33.65;;;24.80;;
48999;SDS011;34808;48.144;17.158;2022-11-15T09:04:40;33.38;;;24.27;;
48999;SDS011;34808;48.144;17.158;2022-11-15T09:07:07;35.08;;;24.33;;
48999;SDS011;34808;48.144;17.158;2022-11-15T09:09:32;33.15;;;23.80;;
48999;SDS011;34808;48.144;17.158;2022-11-15T09:11:58;35.13;;;25.17;;
48999;SDS011;34808;48.144;17.158;2022-11-15T09:14:23;31.73;;;23.48;;
48999;SDS011;34808;48.144;17.158;2022-11-15T09:16:51;31.25;;;22.77;;
48999;SDS011;34808;48.144;17.158;2022-11-15T09:19:16;33.83;;;24.42;;
48999;SDS011;34808;48.144;17.158;2022-11-15T09:21:41;28.83;;;22.88;;
48999;SDS011;34808;48.144;17.158;2022-11-15T09:24:07;32.92;;;24.90;;
48999;SDS011;34808;48.144;17.158;2022-11-15T09:26:33;30.83;;;23.67;;
48999;SDS011;34808;48.144;17.158;2022-11-15T09:28:59;34.40;;;24.17;;
48999;SDS011;34808;48.144;17.158;2022-11-15T09:31:26;33.20;;;26.38;;
48999;SDS011;34808;48.144;17.158;2022-11-15T09:33:51;32.80;;;25.48;;
48999;SDS011;34808;48.144;17.158;2022-11-15T09:36:17;35.28;;;26.48;;
48999;SDS011;34808;48.144;17.158;2022-11-15T09:38:42;29.77;;;23.65;;
48999;SDS011;34808;48.144;17.158;2022-11-15T09:49:39;31.50;;;23.80;;
48999;SDS011;34808;48.144;17.158;2022-11-15T09:52:04;35.33;;;26.00;;
48999;SDS011;34808;48.144;17.158;2022-11-15T09:54:36;34.17;;;24.35;;
48999;SDS011;34808;48.144;17.158;2022-11-15T09:59:45;35.58;;;26.63;;
48999;SDS011;34808;48.144;17.158;2022-11-15T10:02:51;35.65;;;24.70;;
48999;SDS011;34808;48.144;17.158;2022-11-15T10:05:19;38.58;;;25.25;;
48999;SDS011;34808;48.144;17.158;2022-11-15T10:10:53;31.83;;;24.60;;
48999;SDS011;34808;48.144;17.158;2022-11-15T10:13:32;36.42;;;26.15;;
48999;SDS011;34808;48.144;17.158;2022-11-15T10:16:13;33.95;;;25.50;;
48999;SDS011;34808;48.144;17.158;2022-11-15T10:19:05;34.83;;;25.80;;
48999;SDS011;34808;48.144;17.158;2022-11-15T10:22:45;34.60;;;23.80;;
48999;SDS011;34808;48.144;17.158;2022-11-15T10:24:37;34.42;;;26.65;;
48999;SDS011;34808;48.144;17.158;2022-11-15T10:27:11;36.50;;;26.40;;
48999;SDS011;34808;48.144;17.158;2022-11-15T10:29:45;36.35;;;27.55;;
48999;SDS011;34808;48.144;17.158;2022-11-15T10:32:17;34.70;;;26.20;;
48999;SDS011;34808;48.144;17.158;2022-11-15T10:34:43;34.10;;;25.80;;
48999;SDS011;34808;48.144;17.158;2022-11-15T10:37:09;31.17;;;25.92;;
48999;SDS011;34808;48.144;17.158;2022-11-15T10:39:37;38.80;;;28.92;;
48999;SDS011;34808;48.144;17.158;2022-11-15T10:42:16;41.58;;;27.00;;
48999;SDS011;34808;48.144;17.158;2022-11-15T10:44:54;38.08;;;28.10;;
48999;SDS011;34808;48.144;17.158;2022-11-15T10:47:24;34.95;;;26.63;;
48999;SDS011;34808;48.144;17.158;2022-11-15T10:49:55;37.63;;;27.73;;
48999;SDS011;34808;48.144;17.158;2022-11-15T10:52:53;38.78;;;26.50;;
48999;SDS011;34808;48.144;17.158;2022-11-15T10:55:29;37.60;;;28.42;;
48999;SDS011;34808;48.144;17.158;2022-11-15T10:58:03;37.33;;;27.98;;
48999;SDS011;34808;48.144;17.158;2022-11-15T11:00:36;35.60;;;28.13;;
48999;SDS011;34808;48.144;17.158;2022-11-15T11:03:22;37.03;;;27.98;;
48999;SDS011;34808;48.144;17.158;2022-11-15T11:06:09;41.15;;;29.95;;
48999;SDS011;34808;48.144;17.158;2022-11-15T11:08:53;35.92;;;27.67;;
48999;SDS011;34808;48.144;17.158;2022-11-15T11:11:20;39.08;;;27.83;;
48999;SDS011;34808;48.144;17.158;2022-11-15T11:13:48;40.28;;;28.90;;
48999;SDS011;34808;48.144;17.158;2022-11-15T11:41:00;42.88;;;30.58;;
48999;SDS011;34808;48.144;17.158;2022-11-15T11:48:57;42.15;;;30.83;;
48999;SDS011;34808;48.144;17.158;2022-11-15T11:51:25;42.35;;;29.45;;
48999;SDS011;34808;48.144;17.158;2022-11-15T11:54:06;47.13;;;32.30;;
48999;SDS011;34808;48.144;17.158;2022-11-15T11:56:55;42.78;;;31.60;;
48999;SDS011;34808;48.144;17.158;2022-11-15T11:59:32;45.38;;;32.45;;
48999;SDS011;34808;48.144;17.158;2022-11-15T12:02:12;47.22;;;35.75;;
48999;SDS011;34808;48.144;17.158;2022-11-15T12:04:45;46.33;;;33.63;;
48999;SDS011;34808;48.144;17.158;2022-11-15T12:12:54;44.75;;;33.58;;
48999;SDS011;34808;48.144;17.158;2022-11-15T12:15:31;46.45;;;33.13;;
48999;SDS011;34808;48.144;17.158;2022-11-15T12:18:02;43.30;;;31.60;;
48999;SDS011;34808;48.144;17.158;2022-11-15T12:20:32;48.15;;;33.95;;
48999;SDS011;34808;48.144;17.158;2022-11-15T12:23:07;45.53;;;33.47;;
48999;SDS011;34808;48.144;17.158;2022-11-15T12:31:22;50.42;;;37.65;;
48999;SDS011;34808;48.144;17.158;2022-11-15T12:33:56;47.45;;;33.92;;
48999;SDS011;34808;48.144;17.158;2022-11-15T12:41:30;42.88;;;31.10;;
48999;SDS011;34808;48.144;17.158;2022-11-15T12:43:56;44.60;;;31.13;;
48999;SDS011;34808;48.144;17.158;2022-11-15T12:52:08;43.97;;;33.25;;
48999;SDS011;34808;48.144;17.158;2022-11-15T13:02:24;42.70;;;31.50;;
48999;SDS011;34808;48.144;17.158;2022-11-15T13:17:47;47.08;;;32.55;;
48999;SDS011;34808;48.144;17.158;2022-11-15T13:22:52;40.47;;;30.88;;
48999;SDS011;34808;48.144;17.158;2022-11-15T13:28:31;42.85;;;31.48;;
48999;SDS011;34808;48.144;17.158;2022-11-15T13:33:53;46.15;;;33.83;;
48999;SDS011;34808;48.144;17.158;2022-11-15T13:36:22;45.35;;;34.13;;
48999;SDS011;34808;48.144;17.158;2022-11-15T13:38:54;46.95;;;33.42;;
48999;SDS011;34808;48.144;17.158;2022-11-15T13:41:24;45.25;;;33.17;;
48999;SDS011;34808;48.144;17.158;2022-11-15T13:43:52;47.22;;;34.58;;
48999;SDS011;34808;48.144;17.158;2022-11-15T13:46:21;49.10;;;33.85;;
48999;SDS011;34808;48.144;17.158;2022-11-15T13:48:53;46.40;;;32.45;;
48999;SDS011;34808;48.144;17.158;2022-11-15T13:51:32;48.20;;;34.55;;
48999;SDS011;34808;48.144;17.158;2022-11-15T13:54:14;46.53;;;34.42;;
48999;SDS011;34808;48.144;17.158;2022-11-15T13:56:47;45.10;;;32.78;;
48999;SDS011;34808;48.144;17.158;2022-11-15T14:02:02;44.85;;;33.28;;
48999;SDS011;34808;48.144;17.158;2022-11-15T14:04:38;46.17;;;32.53;;
48999;SDS011;34808;48.144;17.158;2022-11-15T14:07:19;47.17;;;32.63;;
48999;SDS011;34808;48.144;17.158;2022-11-15T14:09:47;53.25;;;36.55;;
48999;SDS011;34808;48.144;17.158;2022-11-15T14:15:28;48.88;;;33.22;;
48999;SDS011;34808;48.144;17.158;2022-11-15T14:18:04;48.45;;;33.30;;
48999;SDS011;34808;48.144;17.158;2022-11-15T14:20:31;52.45;;;33.58;;
48999;SDS011;34808;48.144;17.158;2022-11-15T14:23:04;47.55;;;33.10;;
48999;SDS011;34808;48.144;17.158;2022-11-15T14:25:51;43.17;;;30.90;;
48999;SDS011;34808;48.144;17.158;2022-11-15T14:30:50;44.78;;;32.38;;
48999;SDS011;34808;48.144;17.158;2022-11-15T14:35:54;51.05;;;31.48;;
48999;SDS011;34808;48.144;17.158;2022-11-15T14:38:23;38.95;;;30.45;;
48999;SDS011;34808;48.144;17.158;2022-11-15T14:40:51;41.13;;;31.95;;
48999;SDS011;34808;48.144;17.158;2022-11-15T14:43:16;42.47;;;32.60;;
48999;SDS011;34808;48.144;17.158;2022-11-15T14:45:42;43.75;;;30.55;;
48999;SDS011;34808;48.144;17.158;2022-11-15T14:48:07;42.65;;;30.90;;
48999;SDS011;34808;48.144;17.158;2022-11-15T14:50:34;40.67;;;31.48;;
48999;SDS011;34808;48.144;17.158;2022-11-15T14:53:00;41.13;;;31.38;;
48999;SDS011;34808;48.144;17.158;2022-11-15T14:55:28;42.92;;;30.25;;
48999;SDS011;34808;48.144;17.158;2022-11-15T14:58:04;41.13;;;29.98;;
48999;SDS011;34808;48.144;17.158;2022-11-15T15:00:33;40.13;;;30.80;;
48999;SDS011;34808;48.144;17.158;2022-11-15T15:03:02;37.25;;;29.63;;
48999;SDS011;34808;48.144;17.158;2022-11-15T15:05:32;37.70;;;30.52;;
48999;SDS011;34808;48.144;17.158;2022-11-15T15:08:02;37.17;;;28.60;;
48999;SDS011;34808;48.144;17.158;2022-11-15T15:10:30;38.90;;;29.40;;
48999;SDS011;34808;48.144;17.158;2022-11-15T15:13:00;39.10;;;27.23;;
48999;SDS011;34808;48.144;17.158;2022-11-15T15:15:28;35.17;;;26.50;;
48999;SDS011;34808;48.144;17.158;2022-11-15T15:18:00;47.85;;;26.63;;
48999;SDS011;34808;48.144;17.158;2022-11-15T15:20:26;39.95;;;27.38;;
48999;SDS011;34808;48.144;17.158;2022-11-15T15:22:52;33.25;;;24.92;;
48999;SDS011;34808;48.144;17.158;2022-11-15T15:25:26;33.97;;;26.38;;
48999;SDS011;34808;48.144;17.158;2022-11-15T15:27:55;34.15;;;26.65;;
48999;SDS011;34808;48.144;17.158;2022-11-15T15:30:24;39.20;;;25.08;;
48999;SDS011;34808;48.144;17.158;2022-11-15T15:32:52;34.63;;;25.77;;
48999;SDS011;34808;48.144;17.158;2022-11-15T15:35:18;33.78;;;25.50;;
48999;SDS011;34808;48.144;17.158;2022-11-15T15:37:45;36.05;;;25.75;;
48999;SDS011;34808;48.144;17.158;2022-11-15T15:40:21;33.92;;;25.92;;
48999;SDS011;34808;48.144;17.158;2022-11-15T15:42:48;30.88;;;22.90;;
48999;SDS011;34808;48.144;17.158;2022-11-15T15:45:14;30.98;;;24.05;;
48999;SDS011;34808;48.144;17.158;2022-11-15T15:47:41;31.67;;;25.25;;
48999;SDS011;34808;48.144;17.158;2022-11-15T15:52:56;35.63;;;25.15;;
48999;SDS011;34808;48.144;17.158;2022-11-15T15:55:23;35.53;;;26.88;;
48999;SDS011;34808;48.144;17.158;2022-11-15T15:57:49;41.50;;;27.70;;
48999;SDS011;34808;48.144;17.158;2022-11-15T16:00:15;36.70;;;26.70;;
48999;SDS011;34808;48.144;17.158;2022-11-15T16:02:41;42.03;;;29.67;;
48999;SDS011;34808;48.144;17.158;2022-11-15T16:05:08;36.55;;;27.67;;
48999;SDS011;34808;48.144;17.158;2022-11-15T16:07:34;37.50;;;28.90;;
48999;SDS011;34808;48.144;17.158;2022-11-15T16:09:59;40.53;;;28.88;;
48999;SDS011;34808;48.144;17.158;2022-11-15T16:12:27;42.03;;;29.25;;
48999;SDS011;34808;48.144;17.158;2022-11-15T16:14:52;39.28;;;29.80;;
48999;SDS011;34808;48.144;17.158;2022-11-15T16:17:18;36.75;;;28.50;;
48999;SDS011;34808;48.144;17.158;2022-11-15T16:19:48;38.85;;;28.00;;
48999;SDS011;34808;48.144;17.158;2022-11-15T16:22:14;46.35;;;31.40;;
48999;SDS011;34808;48.144;17.158;2022-11-15T16:24:42;40.17;;;30.23;;
48999;SDS011;34808;48.144;17.158;2022-11-15T16:27:12;42.90;;;31.50;;
48999;SDS011;34808;48.144;17.158;2022-11-15T16:29:41;40.00;;;31.58;;
48999;SDS011;34808;48.144;17.158;2022-11-15T16:32:07;45.25;;;33.13;;
48999;SDS011;34808;48.144;17.158;2022-11-15T16:34:32;44.67;;;33.08;;
48999;SDS011;34808;48.144;17.158;2022-11-15T16:36:57;44.13;;;32.38;;
48999;SDS011;34808;48.144;17.158;2022-11-15T16:39:23;54.00;;;36.80;;
48999;SDS011;34808;48.144;17.158;2022-11-15T16:41:52;52.50;;;35.45;;
48999;SDS011;34808;48.144;17.158;2022-11-15T16:44:18;50.70;;;35.53;;